sensor_id;sensor_type;location;lat;lon;timestamp;P1;durP1;ratioP1;P2;durP2;ratioP2
15693;SDS011;7947;48.834;9.132;2022-07-17T00:02:23;4.50;;;2.47;;
15693;SDS011;7947;48.834;9.132;2022-07-17T00:05:28;5.47;;;2.42;;
15693;SDS011;7947;48.834;9.132;2022-07-17T00:08:35;4.03;;;2.70;;
15693;SDS011;7947;48.834;9.132;2022-07-17T00:11:40;3.90;;;2.67;;
15693;SDS011;7947;48.834;9.132;2022-07-17T00:14:45;6.97;;;3.00;;
15693;SDS011;7947;48.834;9.132;2022-07-17T00:17:52;5.70;;;2.75;;
15693;SDS011;7947;48.834;9.132;2022-07-17T00:20:57;3.33;;;2.33;;
15693;SDS011;7947;48.834;9.132;2022-07-17T00:24:03;3.90;;;2.70;;
15693;SDS011;7947;48.834;9.132;2022-07-17T00:27:09;3.80;;;2.38;;
15693;SDS011;7947;48.834;9.132;2022-07-17T00:30:14;2.50;;;2.30;;
15693;SDS011;7947;48.834;9.132;2022-07-17T00:33:20;4.80;;;3.10;;
15693;SDS011;7947;48.834;9.132;2022-07-17T00:36:25;4.63;;;2.35;;
15693;SDS011;7947;48.834;9.132;2022-07-17T00:39:32;2.55;;;2.28;;
15693;SDS011;7947;48.834;9.132;2022-07-17T00:42:38;5.38;;;2.35;;
15693;SDS011;7947;48.834;9.132;2022-07-17T00:45:53;3.60;;;2.58;;
15693;SDS011;7947;48.834;9.132;2022-07-17T00:48:59;5.20;;;2.60;;
15693;SDS011;7947;48.834;9.132;2022-07-17T00:52:05;2.75;;;2.40;;
15693;SDS011;7947;48.834;9.132;2022-07-17T00:55:11;3.35;;;2.53;;
15693;SDS011;7947;48.834;9.132;2022-07-17T00:58:39;5.03;;;2.42;;
15693;SDS011;7947;48.834;9.132;2022-07-17T01:01:44;4.80;;;2.22;;
15693;SDS011;7947;48.834;9.132;2022-07-17T01:04:49;3.20;;;2.80;;
15693;SDS011;7947;48.834;9.132;2022-07-17T01:07:56;2.92;;;2.30;;
15693;SDS011;7947;48.834;9.132;2022-07-17T01:11:04;3.50;;;2.50;;
15693;SDS011;7947;48.834;9.132;2022-07-17T01:14:10;2.90;;;2.30;;
15693;SDS011;7947;48.834;9.132;2022-07-17T01:17:15;3.00;;;1.85;;
15693;SDS011;7947;48.834;9.132;2022-07-17T01:20:22;4.10;;;2.40;;
15693;SDS011;7947;48.834;9.132;2022-07-17T01:23:28;5.10;;;2.83;;
15693;SDS011;7947;48.834;9.132;2022-07-17T01:26:33;4.22;;;2.60;;
15693;SDS011;7947;48.834;9.132;2022-07-17T01:29:39;2.85;;;2.45;;
15693;SDS011;7947;48.834;9.132;2022-07-17T01:32:44;2.83;;;2.63;;
15693;SDS011;7947;48.834;9.132;2022-07-17T01:35:50;3.47;;;2.38;;
15693;SDS011;7947;48.834;9.132;2022-07-17T01:38:57;4.15;;;2.60;;
15693;SDS011;7947;48.834;9.132;2022-07-17T01:42:02;3.85;;;2.53;;
15693;SDS011;7947;48.834;9.132;2022-07-17T01:45:08;3.80;;;2.83;;
15693;SDS011;7947;48.834;9.132;2022-07-17T01:48:22;3.00;;;2.67;;
15693;SDS011;7947;48.834;9.132;2022-07-17T01:51:28;5.28;;;2.88;;
15693;SDS011;7947;48.834;9.132;2022-07-17T01:54:35;3.00;;;2.70;;
15693;SDS011;7947;48.834;9.132;2022-07-17T01:57:40;5.40;;;2.72;;
15693;SDS011;7947;48.834;9.132;2022-07-17T02:00:46;4.90;;;2.70;;
15693;SDS011;7947;48.834;9.132;2022-07-17T02:03:53;3.88;;;3.15;;
15693;SDS011;7947;48.834;9.132;2022-07-17T02:06:58;6.18;;;2.70;;
15693;SDS011;7947;48.834;9.132;2022-07-17T02:10:05;3.95;;;2.50;;
15693;SDS011;7947;48.834;9.132;2022-07-17T02:13:10;4.05;;;2.63;;
15693;SDS011;7947;48.834;9.132;2022-07-17T02:16:16;4.10;;;3.20;;
15693;SDS011;7947;48.834;9.132;2022-07-17T02:19:21;3.47;;;3.17;;
15693;SDS011;7947;48.834;9.132;2022-07-17T02:22:26;3.10;;;2.80;;
15693;SDS011;7947;48.834;9.132;2022-07-17T02:25:33;5.72;;;3.00;;
15693;SDS011;7947;48.834;9.132;2022-07-17T02:28:38;3.28;;;2.85;;
15693;SDS011;7947;48.834;9.132;2022-07-17T02:31:43;5.63;;;3.33;;
15693;SDS011;7947;48.834;9.132;2022-07-17T02:34:49;6.13;;;3.45;;
15693;SDS011;7947;48.834;9.132;2022-07-17T02:37:55;5.18;;;3.03;;
15693;SDS011;7947;48.834;9.132;2022-07-17T02:41:03;4.00;;;3.05;;
15693;SDS011;7947;48.834;9.132;2022-07-17T02:44:08;4.25;;;2.72;;
15693;SDS011;7947;48.834;9.132;2022-07-17T02:47:16;4.47;;;3.10;;
15693;SDS011;7947;48.834;9.132;2022-07-17T02:50:25;4.40;;;3.03;;
15693;SDS011;7947;48.834;9.132;2022-07-17T02:53:30;3.72;;;2.70;;
15693;SDS011;7947;48.834;9.132;2022-07-17T02:56:37;3.70;;;3.08;;
15693;SDS011;7947;48.834;9.132;2022-07-17T02:59:42;3.63;;;3.33;;
15693;SDS011;7947;48.834;9.132;2022-07-17T03:02:48;3.50;;;2.88;;
15693;SDS011;7947;48.834;9.132;2022-07-17T03:05:53;5.20;;;2.97;;
15693;SDS011;7947;48.834;9.132;2022-07-17T03:08:58;5.18;;;3.08;;
15693;SDS011;7947;48.834;9.132;2022-07-17T03:12:05;3.58;;;3.10;;
15693;SDS011;7947;48.834;9.132;2022-07-17T03:15:11;4.45;;;3.28;;
15693;SDS011;7947;48.834;9.132;2022-07-17T03:18:16;3.58;;;3.00;;
15693;SDS011;7947;48.834;9.132;2022-07-17T03:21:23;5.63;;;3.30;;
15693;SDS011;7947;48.834;9.132;2022-07-17T03:24:28;5.75;;;3.30;;
15693;SDS011;7947;48.834;9.132;2022-07-17T03:27:35;4.55;;;2.92;;
15693;SDS011;7947;48.834;9.132;2022-07-17T03:30:40;3.53;;;3.00;;
15693;SDS011;7947;48.834;9.132;2022-07-17T03:33:46;5.35;;;3.72;;
15693;SDS011;7947;48.834;9.132;2022-07-17T03:36:51;3.55;;;3.10;;
15693;SDS011;7947;48.834;9.132;2022-07-17T03:39:57;4.93;;;3.55;;
15693;SDS011;7947;48.834;9.132;2022-07-17T03:43:04;4.35;;;3.17;;
15693;SDS011;7947;48.834;9.132;2022-07-17T03:46:09;2.88;;;2.67;;
15693;SDS011;7947;48.834;9.132;2022-07-17T03:49:15;3.67;;;3.13;;
15693;SDS011;7947;48.834;9.132;2022-07-17T03:52:20;5.80;;;3.20;;
15693;SDS011;7947;48.834;9.132;2022-07-17T03:55:25;3.13;;;2.83;;
15693;SDS011;7947;48.834;9.132;2022-07-17T03:58:32;3.22;;;2.72;;
15693;SDS011;7947;48.834;9.132;2022-07-17T04:01:37;4.13;;;3.17;;
15693;SDS011;7947;48.834;9.132;2022-07-17T04:04:42;3.80;;;3.50;;
15693;SDS011;7947;48.834;9.132;2022-07-17T04:07:49;6.20;;;3.60;;
15693;SDS011;7947;48.834;9.132;2022-07-17T04:10:54;3.75;;;3.45;;
15693;SDS011;7947;48.834;9.132;2022-07-17T04:14:01;3.20;;;2.80;;
15693;SDS011;7947;48.834;9.132;2022-07-17T04:17:06;4.10;;;3.50;;
15693;SDS011;7947;48.834;9.132;2022-07-17T04:20:14;3.40;;;3.10;;
15693;SDS011;7947;48.834;9.132;2022-07-17T04:23:19;3.40;;;3.05;;
15693;SDS011;7947;48.834;9.132;2022-07-17T04:26:26;4.00;;;3.15;;
15693;SDS011;7947;48.834;9.132;2022-07-17T04:29:36;5.50;;;3.38;;
15693;SDS011;7947;48.834;9.132;2022-07-17T04:32:42;5.00;;;3.40;;
15693;SDS011;7947;48.834;9.132;2022-07-17T04:35:47;4.30;;;3.03;;
15693;SDS011;7947;48.834;9.132;2022-07-17T04:38:52;3.42;;;3.13;;
15693;SDS011;7947;48.834;9.132;2022-07-17T04:41:57;4.03;;;3.17;;
15693;SDS011;7947;48.834;9.132;2022-07-17T04:45:04;4.78;;;3.70;;
15693;SDS011;7947;48.834;9.132;2022-07-17T04:48:10;7.40;;;4.05;;
15693;SDS011;7947;48.834;9.132;2022-07-17T04:51:16;4.18;;;3.75;;
15693;SDS011;7947;48.834;9.132;2022-07-17T04:54:21;4.88;;;4.38;;
15693;SDS011;7947;48.834;9.132;2022-07-17T04:57:26;7.70;;;4.35;;
15693;SDS011;7947;48.834;9.132;2022-07-17T05:00:33;5.85;;;3.90;;
15693;SDS011;7947;48.834;9.132;2022-07-17T05:03:38;6.10;;;3.78;;
15693;SDS011;7947;48.834;9.132;2022-07-17T05:06:43;6.63;;;3.72;;
15693;SDS011;7947;48.834;9.132;2022-07-17T05:09:48;6.45;;;3.95;;
15693;SDS011;7947;48.834;9.132;2022-07-17T05:12:53;5.38;;;4.20;;
15693;SDS011;7947;48.834;9.132;2022-07-17T05:16:00;5.80;;;3.75;;
15693;SDS011;7947;48.834;9.132;2022-07-17T05:19:05;4.15;;;3.75;;
15693;SDS011;7947;48.834;9.132;2022-07-17T05:22:10;5.18;;;4.22;;
15693;SDS011;7947;48.834;9.132;2022-07-17T05:25:16;5.28;;;3.85;;
15693;SDS011;7947;48.834;9.132;2022-07-17T05:28:21;7.13;;;3.70;;
15693;SDS011;7947;48.834;9.132;2022-07-17T05:31:27;5.68;;;4.10;;
15693;SDS011;7947;48.834;9.132;2022-07-17T05:34:33;5.28;;;3.70;;
15693;SDS011;7947;48.834;9.132;2022-07-17T05:37:38;5.00;;;4.30;;
15693;SDS011;7947;48.834;9.132;2022-07-17T05:40:43;11.50;;;4.47;;
15693;SDS011;7947;48.834;9.132;2022-07-17T05:43:48;6.95;;;4.82;;
15693;SDS011;7947;48.834;9.132;2022-07-17T05:46:55;6.47;;;4.60;;
15693;SDS011;7947;48.834;9.132;2022-07-17T05:50:00;5.70;;;3.78;;
15693;SDS011;7947;48.834;9.132;2022-07-17T05:53:06;7.00;;;4.38;;
15693;SDS011;7947;48.834;9.132;2022-07-17T05:56:11;6.68;;;4.40;;
15693;SDS011;7947;48.834;9.132;2022-07-17T05:59:16;6.82;;;3.90;;
15693;SDS011;7947;48.834;9.132;2022-07-17T06:02:23;8.25;;;3.83;;
15693;SDS011;7947;48.834;9.132;2022-07-17T06:05:28;8.10;;;4.25;;
15693;SDS011;7947;48.834;9.132;2022-07-17T06:08:34;5.22;;;4.05;;
15693;SDS011;7947;48.834;9.132;2022-07-17T06:11:40;7.03;;;3.92;;
15693;SDS011;7947;48.834;9.132;2022-07-17T06:14:47;4.40;;;3.50;;
15693;SDS011;7947;48.834;9.132;2022-07-17T06:17:54;5.47;;;3.40;;
15693;SDS011;7947;48.834;9.132;2022-07-17T06:20:59;4.38;;;3.38;;
15693;SDS011;7947;48.834;9.132;2022-07-17T06:24:04;6.32;;;3.08;;
15693;SDS011;7947;48.834;9.132;2022-07-17T06:27:12;3.85;;;3.40;;
15693;SDS011;7947;48.834;9.132;2022-07-17T06:30:17;4.82;;;3.10;;
15693;SDS011;7947;48.834;9.132;2022-07-17T06:33:24;3.78;;;3.47;;
15693;SDS011;7947;48.834;9.132;2022-07-17T06:36:29;3.38;;;2.97;;
15693;SDS011;7947;48.834;9.132;2022-07-17T06:39:35;3.53;;;2.78;;
15693;SDS011;7947;48.834;9.132;2022-07-17T06:42:40;3.08;;;2.67;;
15693;SDS011;7947;48.834;9.132;2022-07-17T06:45:45;3.88;;;2.17;;
15693;SDS011;7947;48.834;9.132;2022-07-17T06:48:52;2.97;;;2.15;;
15693;SDS011;7947;48.834;9.132;2022-07-17T06:51:57;4.15;;;2.35;;
15693;SDS011;7947;48.834;9.132;2022-07-17T06:55:00;3.72;;;2.38;;
15693;SDS011;7947;48.834;9.132;2022-07-17T06:58:03;2.78;;;2.17;;
15693;SDS011;7947;48.834;9.132;2022-07-17T07:01:05;4.38;;;2.00;;
15693;SDS011;7947;48.834;9.132;2022-07-17T07:04:10;2.17;;;1.90;;
15693;SDS011;7947;48.834;9.132;2022-07-17T07:07:13;2.65;;;1.80;;
15693;SDS011;7947;48.834;9.132;2022-07-17T07:10:15;2.75;;;1.98;;
15693;SDS011;7947;48.834;9.132;2022-07-17T07:13:18;3.55;;;2.25;;
15693;SDS011;7947;48.834;9.132;2022-07-17T07:16:21;3.78;;;2.28;;
15693;SDS011;7947;48.834;9.132;2022-07-17T07:19:25;3.25;;;1.88;;
15693;SDS011;7947;48.834;9.132;2022-07-17T07:22:28;2.75;;;1.70;;
15693;SDS011;7947;48.834;9.132;2022-07-17T07:25:31;5.60;;;2.97;;
15693;SDS011;7947;48.834;9.132;2022-07-17T07:28:36;1.60;;;1.48;;
15693;SDS011;7947;48.834;9.132;2022-07-17T07:31:39;3.00;;;1.95;;
15693;SDS011;7947;48.834;9.132;2022-07-17T07:34:43;4.38;;;1.58;;
15693;SDS011;7947;48.834;9.132;2022-07-17T07:37:46;1.60;;;1.50;;
15693;SDS011;7947;48.834;9.132;2022-07-17T07:40:49;2.72;;;1.40;;
15693;SDS011;7947;48.834;9.132;2022-07-17T07:43:52;2.13;;;1.60;;
15693;SDS011;7947;48.834;9.132;2022-07-17T07:46:55;2.03;;;1.55;;
15693;SDS011;7947;48.834;9.132;2022-07-17T07:49:59;1.80;;;1.52;;
15693;SDS011;7947;48.834;9.132;2022-07-17T07:53:02;2.58;;;1.77;;
15693;SDS011;7947;48.834;9.132;2022-07-17T07:56:05;3.85;;;1.70;;
15693;SDS011;7947;48.834;9.132;2022-07-17T07:59:08;2.92;;;1.77;;
15693;SDS011;7947;48.834;9.132;2022-07-17T08:02:10;1.85;;;1.40;;
15693;SDS011;7947;48.834;9.132;2022-07-17T08:05:15;3.60;;;1.67;;
15693;SDS011;7947;48.834;9.132;2022-07-17T08:08:18;2.35;;;1.80;;
15693;SDS011;7947;48.834;9.132;2022-07-17T08:11:20;3.25;;;1.70;;
15693;SDS011;7947;48.834;9.132;2022-07-17T08:14:23;2.60;;;1.77;;
15693;SDS011;7947;48.834;9.132;2022-07-17T08:17:26;1.67;;;1.50;;
15693;SDS011;7947;48.834;9.132;2022-07-17T08:20:30;4.65;;;2.13;;
15693;SDS011;7947;48.834;9.132;2022-07-17T08:23:33;2.72;;;1.70;;
15693;SDS011;7947;48.834;9.132;2022-07-17T08:26:36;3.65;;;1.83;;
15693;SDS011;7947;48.834;9.132;2022-07-17T08:29:39;3.45;;;1.70;;
15693;SDS011;7947;48.834;9.132;2022-07-17T08:33:01;2.53;;;1.70;;
15693;SDS011;7947;48.834;9.132;2022-07-17T08:36:07;3.45;;;2.10;;
15693;SDS011;7947;48.834;9.132;2022-07-17T08:39:10;3.72;;;1.75;;
15693;SDS011;7947;48.834;9.132;2022-07-17T08:42:12;1.73;;;1.52;;
15693;SDS011;7947;48.834;9.132;2022-07-17T08:45:17;2.03;;;1.67;;
15693;SDS011;7947;48.834;9.132;2022-07-17T08:48:21;2.42;;;1.50;;
15693;SDS011;7947;48.834;9.132;2022-07-17T08:51:30;3.35;;;1.35;;
15693;SDS011;7947;48.834;9.132;2022-07-17T08:54:34;2.17;;;1.88;;
15693;SDS011;7947;48.834;9.132;2022-07-17T08:57:37;2.35;;;1.40;;
15693;SDS011;7947;48.834;9.132;2022-07-17T09:00:47;2.95;;;1.88;;
15693;SDS011;7947;48.834;9.132;2022-07-17T09:03:55;2.20;;;1.67;;
15693;SDS011;7947;48.834;9.132;2022-07-17T09:07:02;2.15;;;1.63;;
15693;SDS011;7947;48.834;9.132;2022-07-17T09:10:06;2.55;;;1.58;;
15693;SDS011;7947;48.834;9.132;2022-07-17T09:13:13;2.22;;;1.60;;
15693;SDS011;7947;48.834;9.132;2022-07-17T09:16:18;1.98;;;1.50;;
15693;SDS011;7947;48.834;9.132;2022-07-17T09:19:24;2.53;;;1.52;;
15693;SDS011;7947;48.834;9.132;2022-07-17T09:22:30;1.75;;;1.45;;
15693;SDS011;7947;48.834;9.132;2022-07-17T09:25:36;2.55;;;1.80;;
15693;SDS011;7947;48.834;9.132;2022-07-17T09:28:44;1.85;;;1.63;;
15693;SDS011;7947;48.834;9.132;2022-07-17T09:31:48;2.55;;;1.88;;
15693;SDS011;7947;48.834;9.132;2022-07-17T09:34:55;1.33;;;1.17;;
15693;SDS011;7947;48.834;9.132;2022-07-17T09:38:00;1.23;;;1.08;;
15693;SDS011;7947;48.834;9.132;2022-07-17T09:41:06;1.83;;;1.30;;
15693;SDS011;7947;48.834;9.132;2022-07-17T09:44:15;2.25;;;1.25;;
15693;SDS011;7947;48.834;9.132;2022-07-17T09:47:17;2.70;;;1.58;;
15693;SDS011;7947;48.834;9.132;2022-07-17T09:50:20;1.92;;;1.23;;
15693;SDS011;7947;48.834;9.132;2022-07-17T09:53:25;1.77;;;1.48;;
15693;SDS011;7947;48.834;9.132;2022-07-17T09:56:30;2.30;;;1.40;;
15693;SDS011;7947;48.834;9.132;2022-07-17T09:59:35;2.90;;;1.50;;
15693;SDS011;7947;48.834;9.132;2022-07-17T10:02:39;2.80;;;1.40;;
15693;SDS011;7947;48.834;9.132;2022-07-17T10:05:43;1.90;;;1.20;;
15693;SDS011;7947;48.834;9.132;2022-07-17T10:08:48;7.32;;;1.50;;
15693;SDS011;7947;48.834;9.132;2022-07-17T10:11:51;1.55;;;1.08;;
15693;SDS011;7947;48.834;9.132;2022-07-17T10:14:54;1.63;;;1.00;;
15693;SDS011;7947;48.834;9.132;2022-07-17T10:18:04;1.65;;;1.10;;
15693;SDS011;7947;48.834;9.132;2022-07-17T10:21:10;1.80;;;1.20;;
15693;SDS011;7947;48.834;9.132;2022-07-17T10:24:16;2.63;;;1.35;;
15693;SDS011;7947;48.834;9.132;2022-07-17T10:27:20;2.50;;;1.20;;
15693;SDS011;7947;48.834;9.132;2022-07-17T10:30:25;3.58;;;1.67;;
15693;SDS011;7947;48.834;9.132;2022-07-17T10:33:29;2.72;;;1.17;;
15693;SDS011;7947;48.834;9.132;2022-07-17T10:36:33;2.60;;;1.90;;
15693;SDS011;7947;48.834;9.132;2022-07-17T10:39:38;3.00;;;1.80;;
15693;SDS011;7947;48.834;9.132;2022-07-17T10:42:42;2.42;;;1.10;;
15693;SDS011;7947;48.834;9.132;2022-07-17T10:45:47;1.60;;;1.08;;
15693;SDS011;7947;48.834;9.132;2022-07-17T10:48:50;1.30;;;1.20;;
15693;SDS011;7947;48.834;9.132;2022-07-17T10:51:53;2.78;;;1.02;;
15693;SDS011;7947;48.834;9.132;2022-07-17T10:54:58;1.98;;;1.20;;
15693;SDS011;7947;48.834;9.132;2022-07-17T10:58:01;2.25;;;1.25;;
15693;SDS011;7947;48.834;9.132;2022-07-17T11:01:06;3.63;;;0.93;;
15693;SDS011;7947;48.834;9.132;2022-07-17T11:04:11;1.33;;;1.13;;
15693;SDS011;7947;48.834;9.132;2022-07-17T11:07:14;2.25;;;1.10;;
15693;SDS011;7947;48.834;9.132;2022-07-17T11:10:18;1.63;;;1.00;;
15693;SDS011;7947;48.834;9.132;2022-07-17T11:13:22;1.75;;;0.90;;
15693;SDS011;7947;48.834;9.132;2022-07-17T11:16:25;1.13;;;1.02;;
15693;SDS011;7947;48.834;9.132;2022-07-17T11:19:30;1.20;;;1.00;;
15693;SDS011;7947;48.834;9.132;2022-07-17T11:22:35;1.67;;;1.20;;
15693;SDS011;7947;48.834;9.132;2022-07-17T11:25:39;1.45;;;0.90;;
15693;SDS011;7947;48.834;9.132;2022-07-17T11:28:42;1.25;;;0.98;;
15693;SDS011;7947;48.834;9.132;2022-07-17T11:31:46;4.28;;;1.20;;
15693;SDS011;7947;48.834;9.132;2022-07-17T11:34:49;1.20;;;1.10;;
15693;SDS011;7947;48.834;9.132;2022-07-17T11:37:51;1.75;;;1.45;;
15693;SDS011;7947;48.834;9.132;2022-07-17T11:40:57;2.17;;;1.10;;
15693;SDS011;7947;48.834;9.132;2022-07-17T11:44:03;1.17;;;1.05;;
15693;SDS011;7947;48.834;9.132;2022-07-17T11:47:06;1.55;;;1.20;;
15693;SDS011;7947;48.834;9.132;2022-07-17T11:50:12;1.00;;;0.90;;
15693;SDS011;7947;48.834;9.132;2022-07-17T11:53:16;1.30;;;1.20;;
15693;SDS011;7947;48.834;9.132;2022-07-17T11:56:20;1.38;;;1.17;;
15693;SDS011;7947;48.834;9.132;2022-07-17T11:59:24;1.42;;;1.33;;
15693;SDS011;7947;48.834;9.132;2022-07-17T12:02:28;1.58;;;0.98;;
15693;SDS011;7947;48.834;9.132;2022-07-17T12:05:33;2.35;;;0.98;;
15693;SDS011;7947;48.834;9.132;2022-07-17T12:08:37;1.70;;;1.17;;
15693;SDS011;7947;48.834;9.132;2022-07-17T12:11:48;1.83;;;1.30;;
15693;SDS011;7947;48.834;9.132;2022-07-17T12:14:52;1.92;;;1.48;;
15693;SDS011;7947;48.834;9.132;2022-07-17T12:17:56;1.50;;;1.40;;
15693;SDS011;7947;48.834;9.132;2022-07-17T12:21:02;3.42;;;1.20;;
15693;SDS011;7947;48.834;9.132;2022-07-17T12:24:07;1.30;;;1.20;;
15693;SDS011;7947;48.834;9.132;2022-07-17T12:27:17;3.70;;;1.40;;
15693;SDS011;7947;48.834;9.132;2022-07-17T12:30:27;1.48;;;1.00;;
15693;SDS011;7947;48.834;9.132;2022-07-17T12:33:37;1.63;;;1.50;;
15693;SDS011;7947;48.834;9.132;2022-07-17T12:36:45;3.85;;;1.23;;
15693;SDS011;7947;48.834;9.132;2022-07-17T12:39:55;1.95;;;1.30;;
15693;SDS011;7947;48.834;9.132;2022-07-17T12:43:04;1.65;;;1.30;;
15693;SDS011;7947;48.834;9.132;2022-07-17T12:46:13;2.88;;;1.30;;
15693;SDS011;7947;48.834;9.132;2022-07-17T12:49:21;3.38;;;1.23;;
15693;SDS011;7947;48.834;9.132;2022-07-17T12:52:30;1.35;;;1.25;;
15693;SDS011;7947;48.834;9.132;2022-07-17T12:55:39;1.38;;;1.27;;
15693;SDS011;7947;48.834;9.132;2022-07-17T12:58:51;2.63;;;1.25;;
15693;SDS011;7947;48.834;9.132;2022-07-17T13:02:03;2.30;;;1.30;;
15693;SDS011;7947;48.834;9.132;2022-07-17T13:05:10;2.42;;;1.25;;
15693;SDS011;7947;48.834;9.132;2022-07-17T13:08:19;1.77;;;1.40;;
15693;SDS011;7947;48.834;9.132;2022-07-17T13:11:32;1.45;;;1.20;;
15693;SDS011;7947;48.834;9.132;2022-07-17T13:14:48;3.33;;;1.30;;
15693;SDS011;7947;48.834;9.132;2022-07-17T13:17:58;2.97;;;1.52;;
15693;SDS011;7947;48.834;9.132;2022-07-17T13:21:05;2.10;;;1.30;;
15693;SDS011;7947;48.834;9.132;2022-07-17T13:24:11;1.40;;;1.20;;
15693;SDS011;7947;48.834;9.132;2022-07-17T13:27:19;4.05;;;1.10;;
15693;SDS011;7947;48.834;9.132;2022-07-17T13:30:29;2.95;;;1.00;;
15693;SDS011;7947;48.834;9.132;2022-07-17T13:33:35;2.55;;;1.10;;
15693;SDS011;7947;48.834;9.132;2022-07-17T13:36:44;1.45;;;1.10;;
15693;SDS011;7947;48.834;9.132;2022-07-17T13:39:52;1.13;;;1.00;;
15693;SDS011;7947;48.834;9.132;2022-07-17T13:43:01;1.98;;;1.20;;
15693;SDS011;7947;48.834;9.132;2022-07-17T13:46:17;1.13;;;1.02;;
15693;SDS011;7947;48.834;9.132;2022-07-17T13:49:30;2.10;;;1.23;;
15693;SDS011;7947;48.834;9.132;2022-07-17T13:52:40;1.55;;;1.05;;
15693;SDS011;7947;48.834;9.132;2022-07-17T13:55:51;3.92;;;1.30;;
15693;SDS011;7947;48.834;9.132;2022-07-17T13:59:01;1.42;;;1.17;;
15693;SDS011;7947;48.834;9.132;2022-07-17T14:02:13;4.25;;;1.30;;
15693;SDS011;7947;48.834;9.132;2022-07-17T14:05:24;2.50;;;1.17;;
15693;SDS011;7947;48.834;9.132;2022-07-17T14:08:32;1.27;;;1.10;;
15693;SDS011;7947;48.834;9.132;2022-07-17T14:11:40;3.42;;;1.30;;
15693;SDS011;7947;48.834;9.132;2022-07-17T14:14:52;3.67;;;1.35;;
15693;SDS011;7947;48.834;9.132;2022-07-17T14:18:03;2.95;;;1.33;;
15693;SDS011;7947;48.834;9.132;2022-07-17T14:21:21;1.35;;;1.08;;
15693;SDS011;7947;48.834;9.132;2022-07-17T14:24:31;2.53;;;1.40;;
15693;SDS011;7947;48.834;9.132;2022-07-17T14:27:41;1.83;;;1.20;;
15693;SDS011;7947;48.834;9.132;2022-07-17T14:30:50;1.92;;;1.20;;
15693;SDS011;7947;48.834;9.132;2022-07-17T14:34:01;1.67;;;1.02;;
15693;SDS011;7947;48.834;9.132;2022-07-17T14:37:09;2.92;;;1.10;;
15693;SDS011;7947;48.834;9.132;2022-07-17T14:40:19;1.80;;;1.17;;
15693;SDS011;7947;48.834;9.132;2022-07-17T14:43:29;4.22;;;1.05;;
15693;SDS011;7947;48.834;9.132;2022-07-17T14:46:45;1.38;;;1.13;;
15693;SDS011;7947;48.834;9.132;2022-07-17T14:50:02;4.18;;;0.93;;
15693;SDS011;7947;48.834;9.132;2022-07-17T14:53:17;1.50;;;1.20;;
15693;SDS011;7947;48.834;9.132;2022-07-17T14:56:30;2.30;;;1.10;;
15693;SDS011;7947;48.834;9.132;2022-07-17T14:59:43;5.50;;;1.30;;
15693;SDS011;7947;48.834;9.132;2022-07-17T15:02:52;1.10;;;0.90;;
15693;SDS011;7947;48.834;9.132;2022-07-17T15:06:07;1.00;;;0.90;;
15693;SDS011;7947;48.834;9.132;2022-07-17T15:09:17;1.23;;;1.13;;
15693;SDS011;7947;48.834;9.132;2022-07-17T15:12:26;1.38;;;1.13;;
15693;SDS011;7947;48.834;9.132;2022-07-17T15:15:41;2.63;;;1.40;;
15693;SDS011;7947;48.834;9.132;2022-07-17T15:19:32;1.58;;;1.10;;
15693;SDS011;7947;48.834;9.132;2022-07-17T15:27:51;1.30;;;1.20;;
15693;SDS011;7947;48.834;9.132;2022-07-17T15:31:30;2.08;;;1.15;;
15693;SDS011;7947;48.834;9.132;2022-07-17T15:35:01;3.35;;;1.20;;
15693;SDS011;7947;48.834;9.132;2022-07-17T15:38:17;4.05;;;2.90;;
15693;SDS011;7947;48.834;9.132;2022-07-17T15:41:53;1.60;;;1.50;;
15693;SDS011;7947;48.834;9.132;2022-07-17T15:48:58;2.58;;;1.30;;
15693;SDS011;7947;48.834;9.132;2022-07-17T15:52:14;2.67;;;1.30;;
15693;SDS011;7947;48.834;9.132;2022-07-17T15:55:52;3.13;;;1.67;;
15693;SDS011;7947;48.834;9.132;2022-07-17T15:59:07;6.70;;;2.05;;
15693;SDS011;7947;48.834;9.132;2022-07-17T16:02:29;3.35;;;2.20;;
15693;SDS011;7947;48.834;9.132;2022-07-17T16:05:53;2.30;;;1.40;;
15693;SDS011;7947;48.834;9.132;2022-07-17T16:09:10;2.33;;;1.05;;
15693;SDS011;7947;48.834;9.132;2022-07-17T16:12:17;2.88;;;1.10;;
15693;SDS011;7947;48.834;9.132;2022-07-17T16:15:24;1.77;;;1.20;;
15693;SDS011;7947;48.834;9.132;2022-07-17T16:18:43;1.88;;;1.23;;
15693;SDS011;7947;48.834;9.132;2022-07-17T16:21:50;3.45;;;1.25;;
15693;SDS011;7947;48.834;9.132;2022-07-17T16:24:57;1.20;;;1.10;;
15693;SDS011;7947;48.834;9.132;2022-07-17T16:28:03;2.65;;;1.10;;
15693;SDS011;7947;48.834;9.132;2022-07-17T16:31:10;1.42;;;0.93;;
15693;SDS011;7947;48.834;9.132;2022-07-17T16:34:22;2.83;;;1.10;;
15693;SDS011;7947;48.834;9.132;2022-07-17T16:37:27;2.08;;;1.27;;
15693;SDS011;7947;48.834;9.132;2022-07-17T16:40:31;1.38;;;1.00;;
15693;SDS011;7947;48.834;9.132;2022-07-17T16:43:41;1.83;;;0.98;;
15693;SDS011;7947;48.834;9.132;2022-07-17T16:46:44;2.10;;;0.98;;
15693;SDS011;7947;48.834;9.132;2022-07-17T16:49:48;2.97;;;1.13;;
15693;SDS011;7947;48.834;9.132;2022-07-17T16:52:52;2.28;;;1.00;;
15693;SDS011;7947;48.834;9.132;2022-07-17T16:55:55;2.63;;;1.00;;
15693;SDS011;7947;48.834;9.132;2022-07-17T16:58:58;1.80;;;1.30;;
15693;SDS011;7947;48.834;9.132;2022-07-17T17:02:02;1.85;;;1.15;;
15693;SDS011;7947;48.834;9.132;2022-07-17T17:05:07;1.73;;;1.10;;
15693;SDS011;7947;48.834;9.132;2022-07-17T17:08:11;3.50;;;1.30;;
15693;SDS011;7947;48.834;9.132;2022-07-17T17:11:14;1.23;;;0.98;;
15693;SDS011;7947;48.834;9.132;2022-07-17T17:14:17;2.58;;;1.20;;
15693;SDS011;7947;48.834;9.132;2022-07-17T17:17:20;1.23;;;1.13;;
15693;SDS011;7947;48.834;9.132;2022-07-17T17:20:24;1.75;;;1.00;;
15693;SDS011;7947;48.834;9.132;2022-07-17T17:23:27;4.45;;;1.13;;
15693;SDS011;7947;48.834;9.132;2022-07-17T17:26:30;1.70;;;1.27;;
15693;SDS011;7947;48.834;9.132;2022-07-17T17:29:33;3.10;;;1.77;;
15693;SDS011;7947;48.834;9.132;2022-07-17T17:32:37;1.60;;;1.10;;
15693;SDS011;7947;48.834;9.132;2022-07-17T17:35:41;0.85;;;0.73;;
15693;SDS011;7947;48.834;9.132;2022-07-17T17:38:44;1.13;;;0.90;;
15693;SDS011;7947;48.834;9.132;2022-07-17T17:41:48;1.40;;;1.10;;
15693;SDS011;7947;48.834;9.132;2022-07-17T17:44:51;2.95;;;1.10;;
15693;SDS011;7947;48.834;9.132;2022-07-17T17:47:54;1.77;;;1.20;;
15693;SDS011;7947;48.834;9.132;2022-07-17T17:50:58;3.00;;;1.40;;
15693;SDS011;7947;48.834;9.132;2022-07-17T17:54:01;2.28;;;1.20;;
15693;SDS011;7947;48.834;9.132;2022-07-17T17:57:04;2.40;;;0.93;;
15693;SDS011;7947;48.834;9.132;2022-07-17T18:00:08;1.77;;;1.25;;
15693;SDS011;7947;48.834;9.132;2022-07-17T18:03:11;1.23;;;1.00;;
15693;SDS011;7947;48.834;9.132;2022-07-17T18:06:16;1.67;;;0.90;;
15693;SDS011;7947;48.834;9.132;2022-07-17T18:09:20;2.20;;;0.82;;
15693;SDS011;7947;48.834;9.132;2022-07-17T18:12:23;2.08;;;1.10;;
15693;SDS011;7947;48.834;9.132;2022-07-17T18:15:26;1.05;;;0.93;;
15693;SDS011;7947;48.834;9.132;2022-07-17T18:18:29;2.88;;;1.00;;
15693;SDS011;7947;48.834;9.132;2022-07-17T18:21:35;1.40;;;0.90;;
15693;SDS011;7947;48.834;9.132;2022-07-17T18:24:38;2.25;;;1.13;;
15693;SDS011;7947;48.834;9.132;2022-07-17T18:27:41;2.92;;;1.33;;
15693;SDS011;7947;48.834;9.132;2022-07-17T18:30:44;2.75;;;1.00;;
15693;SDS011;7947;48.834;9.132;2022-07-17T18:33:47;3.88;;;1.27;;
15693;SDS011;7947;48.834;9.132;2022-07-17T18:36:52;1.23;;;0.90;;
15693;SDS011;7947;48.834;9.132;2022-07-17T18:39:55;2.33;;;1.20;;
15693;SDS011;7947;48.834;9.132;2022-07-17T18:42:58;4.10;;;1.98;;
15693;SDS011;7947;48.834;9.132;2022-07-17T18:46:01;2.85;;;1.42;;
15693;SDS011;7947;48.834;9.132;2022-07-17T18:49:04;1.75;;;0.90;;
15693;SDS011;7947;48.834;9.132;2022-07-17T18:52:09;2.33;;;0.80;;
15693;SDS011;7947;48.834;9.132;2022-07-17T18:55:12;1.20;;;0.90;;
15693;SDS011;7947;48.834;9.132;2022-07-17T18:58:16;4.40;;;1.58;;
15693;SDS011;7947;48.834;9.132;2022-07-17T19:01:19;0.98;;;0.88;;
15693;SDS011;7947;48.834;9.132;2022-07-17T19:04:22;2.92;;;0.90;;
15693;SDS011;7947;48.834;9.132;2022-07-17T19:07:26;2.42;;;0.98;;
15693;SDS011;7947;48.834;9.132;2022-07-17T19:10:29;2.75;;;1.27;;